»·PEaware :: N6229P KPSP-KSAN

N6229P :: KPSP-KSAN

FLIGHT INFORMATION

Flight Status: Arrived
Operator: Privately registered:
United States
More flights under this callsign
Pilot: Nathan P. (3026)
Aircraft: PIPER PA-24 COMMANCHE
(PA24)
More flights by this aircraft type
Origin: KPSP Palm Springs Intl
United States
Destination: KSAN San Diego Intl-Lindbergh
United States
More flights between these airports :: More routes between these airports
Route: +CATH1 PSP TRM V514 MZB
File this flight plan on PilotEdge
Remarks:
Altitude:
(Current/Filed)
10,000ft
Speed:
(Current/Filed)
120kts
Departed: 06-Jan-18 05:52 PM
Arrived: 06-Jan-18 06:56 PM
Distance/Time
Traveled:
74nm/1:03
Distance/Time
To Go:
Arrived

Flight Plot

Page will automatically refresh every two minutes.


Map Options




Map Legend


Flown Route
Filed Route
Departure Airport
Arrival Airport
Navaid (VOR, NDB)
Fix

Horizontal Profiles

Position Reports

Time Latitude Longitude Heading Altitude Ground
Speed
06-Jan-18 17:36 33.823872 -116.498084 53 480ft 0kts
06-Jan-18 17:37 33.823872 -116.498084 53 480ft 0kts
06-Jan-18 17:38 33.823873 -116.498082 53 480ft 0kts
06-Jan-18 17:39 33.823875 -116.498079 53 480ft 0kts
06-Jan-18 17:40 33.823877 -116.498075 53 480ft 0kts
06-Jan-18 17:41 33.823880 -116.498071 53 480ft 0kts
06-Jan-18 17:42 33.823882 -116.498067 53 480ft 0kts
06-Jan-18 17:43 33.823884 -116.498064 53 480ft 0kts
06-Jan-18 17:44 33.823887 -116.498060 53 480ft 0kts
06-Jan-18 17:45 33.823889 -116.498056 53 480ft 0kts
06-Jan-18 17:46 33.823892 -116.498052 53 480ft 0kts
06-Jan-18 17:47 33.823894 -116.498048 53 480ft 0kts
06-Jan-18 17:48 33.823896 -116.498044 53 480ft 0kts
06-Jan-18 17:49 33.823899 -116.498040 53 480ft 0kts
06-Jan-18 17:50 33.823901 -116.498036 53 480ft 0kts
06-Jan-18 17:51 33.823904 -116.498033 53 480ft 0kts
06-Jan-18 17:52 33.823906 -116.498029 53 480ft 0kts
06-Jan-18 17:53 33.823908 -116.498025 53 480ft 0kts
06-Jan-18 17:54 33.824094 -116.498008 331 480ft 0kts
06-Jan-18 17:55 33.824144 -116.498049 322 480ft 2kts
06-Jan-18 17:56 33.824586 -116.499622 237 480ft 0kts
06-Jan-18 17:57 33.824405 -116.499939 253 480ft 3kts
06-Jan-18 17:58 33.835368 -116.510703 317 735ft 100kts
06-Jan-18 17:59 33.856998 -116.530404 319 1891ft 93kts
06-Jan-18 18:00 33.876913 -116.550355 319 2882ft 95kts
06-Jan-18 18:01 33.900981 -116.562512 21 3729ft 113kts
06-Jan-18 18:02 33.904832 -116.535777 110 4530ft 104kts
06-Jan-18 18:03 33.891526 -116.497823 127 5471ft 107kts
06-Jan-18 18:04 33.881615 -116.469877 113 6112ft 112kts
06-Jan-18 18:05 33.869484 -116.428234 114 6987ft 114kts
06-Jan-18 18:06 33.857675 -116.399829 131 7539ft 114kts
06-Jan-18 18:07 33.835631 -116.374257 157 8177ft 108kts
06-Jan-18 18:08 33.806119 -116.348897 146 8848ft 115kts
06-Jan-18 18:09 33.785978 -116.327525 148 9312ft 116kts
06-Jan-18 18:10 33.760881 -116.302022 147 9876ft 119kts
06-Jan-18 18:11 33.733350 -116.271356 146 9964ft 148kts
06-Jan-18 18:12 33.700795 -116.238187 145 9938ft 158kts
06-Jan-18 18:13 33.662728 -116.196716 144 9940ft 159kts
06-Jan-18 18:14 33.634527 -116.169142 165 9930ft 151kts
06-Jan-18 18:15 33.599189 -116.180585 221 9950ft 129kts
06-Jan-18 18:16 33.572266 -116.208567 225 9953ft 128kts
06-Jan-18 18:17 33.543544 -116.234208 223 9953ft 128kts
06-Jan-18 18:18 33.514918 -116.260078 223 9955ft 129kts
06-Jan-18 18:19 33.485576 -116.285256 219 9959ft 130kts
06-Jan-18 18:20 33.456704 -116.310886 225 9965ft 128kts
06-Jan-18 18:21 33.427261 -116.335573 219 9968ft 130kts
06-Jan-18 18:22 33.398607 -116.361348 226 9972ft 128kts
06-Jan-18 18:23 33.369765 -116.387178 222 9980ft 129kts
06-Jan-18 18:24 33.339883 -116.411602 223 9984ft 129kts
06-Jan-18 18:25 33.311665 -116.438018 223 9990ft 129kts
06-Jan-18 18:26 33.282031 -116.462642 221 9996ft 130kts
06-Jan-18 18:27 33.252979 -116.488077 221 10017ft 130kts
06-Jan-18 18:28 33.224040 -116.513973 225 10037ft 129kts
06-Jan-18 18:29 33.194201 -116.538618 220 10046ft 130kts
06-Jan-18 18:30 33.165244 -116.564365 224 9993ft 134kts
06-Jan-18 18:31 33.135246 -116.590558 217 9981ft 134kts
06-Jan-18 18:32 33.096187 -116.592657 181 9991ft 146kts
06-Jan-18 18:33 33.056213 -116.591314 194 9993ft 140kts
06-Jan-18 18:34 33.017784 -116.598388 195 9998ft 140kts
06-Jan-18 18:35 32.978524 -116.602599 187 9994ft 144kts
06-Jan-18 18:36 32.939283 -116.606640 194 9994ft 141kts
06-Jan-18 18:37 32.900029 -116.610312 194 9998ft 141kts
06-Jan-18 18:38 32.860482 -116.614456 194 9406ft 155kts
06-Jan-18 18:39 32.820394 -116.619051 191 8430ft 140kts
06-Jan-18 18:40 32.782288 -116.623704 193 7393ft 135kts
06-Jan-18 18:41 32.745039 -116.628454 190 6379ft 134kts
06-Jan-18 18:42 32.720746 -116.655089 241 5328ft 122kts
06-Jan-18 18:43 32.699292 -116.685405 230 4958ft 112kts
06-Jan-18 18:44 32.676778 -116.717251 232 4929ft 135kts
06-Jan-18 18:45 32.653582 -116.753542 231 4926ft 142kts
06-Jan-18 18:46 32.623100 -116.770822 140 4929ft 153kts
06-Jan-18 18:47 32.635825 -116.735797 347 4930ft 141kts
06-Jan-18 18:48 32.665719 -116.758593 321 4943ft 141kts
06-Jan-18 18:49 32.695341 -116.784940 318 4937ft 141kts
06-Jan-18 18:50 32.727720 -116.810645 309 4921ft 138kts
06-Jan-18 18:51 32.722669 -116.849751 222 4973ft 136kts
06-Jan-18 18:52 32.692811 -116.877379 227 4958ft 133kts
06-Jan-18 18:53 32.667113 -116.910976 248 4185ft 143kts
06-Jan-18 18:54 32.669606 -116.950732 288 3999ft 117kts
06-Jan-18 18:55 32.684916 -116.985364 284 3705ft 127kts
06-Jan-18 18:56 32.694105 -117.023612 284 3236ft 118kts
06-Jan-18 18:57 32.702511 -117.062454 288 2339ft 119kts
06-Jan-18 18:58 32.711472 -117.096186 285 1700ft 100kts
06-Jan-18 18:59 32.717834 -117.126769 291 1093ft 85kts
06-Jan-18 19:00 32.724854 -117.152819 290 537ft 76kts
06-Jan-18 19:01 32.730429 -117.176781 287 120ft 73kts
06-Jan-18 19:02 32.733723 -117.188184 14 18ft 7kts
06-Jan-18 19:03 32.734027 -117.188056 31 18ft 0kts
06-Jan-18 19:04 32.734037 -117.188049 32 18ft 0kts
06-Jan-18 19:05 32.732899 -117.182214 105 18ft 24kts
06-Jan-18 19:06 32.733601 -117.178672 118 18ft 9kts
06-Jan-18 19:07 32.733283 -117.178013 202 18ft 0kts
06-Jan-18 19:08 32.733283 -117.178013 202 18ft 0kts
06-Jan-18 19:09 32.733283 -117.178013 202 18ft 0kts

Navigation Log

Ident Type
1. KPSP Airport
2. PSP Navaid
3. TRM Navaid
4. WARNE Fix
5. JLI Navaid
6. CANNO Fix
7. BARET Fix
8. RYAHH Fix
9. HAILE Fix
10. MZB Navaid
11. KSAN Airport